Historical Weather Data

Kanab, UT VWS

Date ET
(Inches)
Rain
(Inches)
Temp °F
Humidity
Avg
Wind MPH
Avg
Solar Wm2
Avg
High Ave Low
09/01/2018 12:00 am 0.209 0.00 87.0 71.8 57.0 30 2.7 306
09/02/2018 12:00 am 0.185 0.00 89.0 73.1 59.0 35 1.9 288
09/03/2018 12:00 am 0.171 0.00 85.0 68.9 57.0 37 1.7 273
09/04/2018 12:00 am 0.147 0.00 83.0 68.8 57.0 46 1.6 237
09/05/2018 12:00 am 0.159 0.00 82.0 68.8 58.0 50 1.8 249
09/06/2018 12:00 am 0.182 0.00 84.0 70.5 56.0 44 2.1 284
09/07/2018 12:00 am 0.203 0.00 88.0 74.0 60.0 39 2.8 295
09/08/2018 12:00 am 0.217 0.00 92.0 76.1 61.0 30 3.0 298
09/09/2018 12:00 am 0.226 0.00 92.0 74.9 59.0 23 3.2 301
09/10/2018 12:00 am 0.213 0.00 90.0 74.3 57.0 24 2.9 298
09/11/2018 12:00 am 0.229 0.00 88.0 73.3 58.0 25 3.5 297
09/12/2018 12:00 am 0.258 0.00 87.0 71.4 53.0 20 5.2 298
09/13/2018 12:00 am 0.249 0.00 84.0 69.3 54.0 20 5.2 297
09/14/2018 12:00 am 0.219 0.00 86.0 68.4 50.0 19 3.6 295
09/15/2018 12:00 am 0.234 0.00 90.0 73.1 55.0 26 4.0 285
09/16/2018 12:00 am 0.193 0.00 88.0 74.3 58.0 34 2.8 266
09/17/2018 12:00 am 0.183 0.00 88.0 73.0 58.0 41 2.6 274
09/18/2018 12:00 am 0.202 0.00 89.0 72.4 55.0 35 3.4 275
09/19/2018 12:00 am 0.220 0.00 84.0 69.3 52.0 28 4.4 280
09/20/2018 12:00 am 0.176 0.00 84.0 66.5 48.0 25 2.4 280
09/21/2018 12:00 am 0.183 0.00 85.0 68.2 51.0 20 2.5 280
09/22/2018 12:00 am 0.178 0.00 86.0 69.2 52.0 25 2.3 273
09/23/2018 12:00 am 0.178 0.00 84.0 68.9 53.0 34 3.1 255
09/24/2018 12:00 am 0.182 0.00 83.0 69.2 55.0 35 3.2 259
09/25/2018 12:00 am 0.168 0.00 84.0 69.3 57.0 30 2.3 266
09/26/2018 12:00 am 0.174 0.00 84.0 67.3 54.0 20 2.6 269
09/27/2018 12:00 am 0.183 0.00 85.0 67.8 52.0 16 2.8 269
09/28/2018 12:00 am 0.178 0.00 85.0 67.7 47.0 18 2.6 262
09/29/2018 12:00 am 0.194 0.00 84.0 69.3 51.0 28 4.0 250
09/30/2018 12:00 am 0.178 0.00 81.0 67.0 54.0 40 4.8 220